首页
METAR-TAF:

METAR-TAF

机场 :

Golden Triangle Regional Airport

哥伦布/ West Point / 斯塔克維爾, 密西西比州, 美国

纬度: 33-27N, 经度: 088-35W, 海拔: 80米

当前天气观测

该预报发布于12分钟前的10:56 UTC
风速4节,风向西转西北
温度 -1°C
湿度 86%
气压 1026 hPa
能見度: 16.1公里
天空无云

METAR: KGTR 271056Z AUTO 30004KT 10SM CLR M01/M03 A3031 RMK AO2 SLP273 T10061028 FZRANO

时间: 05:08 (11:08 UTC)

预报

该预报发布于5小时和36分钟前的05:32 UTC
预报有效从27日的 06点(UTC)到 28日的 06点(UTC)
风速14节,风向西北
能見度: 10公里
散云层高于4000英尺
多云层高于5000英尺
从 27日的 0900点(UTC)
风速5节,风向西北
能見度: 10公里
天空无云

TAF: KGTR 270532Z 2706/2806 32014KT P6SM SCT040 BKN050 FM270900 32005KT P6SM SKC

超过4000个机场的气象观测和天气预报(METAR&TAF报告)。

可查询的气象台以黄色和红色小点在地图上表示。

将鼠标移到小点上方,可查看气象台名称。

然后点击查看天气观测和预报。

如需切换地图:点击带黑十字的绿色按钮放大地图;点击带横线的绿色按钮缩小地图;或者点击绿色箭头查看邻近地区的地图。


METAR-TAF: